createdAt,value
2022-08-17T00:02:25.151Z,21.25
2022-08-17T00:04:55.089Z,17.83
2022-08-17T00:07:22.387Z,18.15
2022-08-17T00:09:49.372Z,20.42
2022-08-17T00:12:42.563Z,18.27
2022-08-17T00:15:04.971Z,20.85
2022-08-17T00:17:31.832Z,21.92
2022-08-17T00:19:59.755Z,21.58
2022-08-17T00:22:32.623Z,23.05
2022-08-17T00:25:07.496Z,23.52
2022-08-17T00:27:35.298Z,23.17
2022-08-17T00:30:02.600Z,29.15
2022-08-17T00:33:22.800Z,21.27
2022-08-17T00:35:25.122Z,25.10
2022-08-17T00:37:52.583Z,24.15
2022-08-17T00:40:20.228Z,24.35
2022-08-17T00:42:49.010Z,22.92
2022-08-17T00:45:17.885Z,25.45
2022-08-17T00:47:44.747Z,27.52
2022-08-17T00:50:14.802Z,25.88
2022-08-17T00:52:52.464Z,32.13
2022-08-17T00:55:20.232Z,30.70
2022-08-17T00:57:54.761Z,29.30
2022-08-17T01:00:30.006Z,27.75
2022-08-17T01:03:10.187Z,30.33
2022-08-17T01:05:42.377Z,29.77
2022-08-17T01:08:13.359Z,28.00
2022-08-17T01:10:59.259Z,31.25
2022-08-17T01:13:40.809Z,28.98
2022-08-17T01:16:16.158Z,31.77
2022-08-17T01:18:45.542Z,25.95
2022-08-17T01:22:03.119Z,32.22
2022-08-17T01:24:30.760Z,25.45
2022-08-17T01:27:00.812Z,26.95
2022-08-17T01:29:30.810Z,26.05
2022-08-17T01:32:01.997Z,28.10
2022-08-17T01:34:32.775Z,29.17
2022-08-17T01:37:11.297Z,25.80
2022-08-17T01:39:43.699Z,31.17
2022-08-17T01:42:20.313Z,27.50
2022-08-17T01:44:47.143Z,28.63
2022-08-17T01:47:14.154Z,29.30
2022-08-17T01:49:41.007Z,32.72
2022-08-17T01:52:10.996Z,29.23
2022-08-17T01:54:41.389Z,31.27
2022-08-17T01:57:09.337Z,30.35
2022-08-17T01:59:36.570Z,37.13
2022-08-17T02:02:04.902Z,33.97
2022-08-17T02:04:32.101Z,33.58
2022-08-17T02:06:58.918Z,35.72
2022-08-17T02:09:29.841Z,38.33
2022-08-17T02:11:59.246Z,32.53
2022-08-17T02:14:26.553Z,36.83
2022-08-17T02:16:54.231Z,37.58
2022-08-17T02:19:22.048Z,31.98
2022-08-17T02:21:52.018Z,30.70
2022-08-17T02:24:58.378Z,28.08
2022-08-17T02:27:13.729Z,29.17
2022-08-17T02:29:40.718Z,31.00
2022-08-17T02:32:20.884Z,31.10
2022-08-17T02:34:54.759Z,35.25
2022-08-17T02:37:21.540Z,37.92
2022-08-17T02:39:48.384Z,35.80
2022-08-17T02:42:15.698Z,35.97
2022-08-17T02:44:42.516Z,35.80
2022-08-17T02:47:10.876Z,32.35
2022-08-17T02:49:38.205Z,38.55
2022-08-17T02:52:07.135Z,40.40
2022-08-17T02:54:39.984Z,36.42
2022-08-17T02:57:10.169Z,32.58
2022-08-17T02:59:38.690Z,34.42
2022-08-17T03:02:11.253Z,36.65
2022-08-17T03:04:38.837Z,36.88
2022-08-17T03:07:05.798Z,35.20
2022-08-17T03:09:32.930Z,37.22
2022-08-17T03:12:08.382Z,34.88
2022-08-17T03:14:41.760Z,35.25
2022-08-17T03:17:10.740Z,29.73
2022-08-17T03:19:43.084Z,31.05
2022-08-17T03:22:36.623Z,30.58
2022-08-17T03:24:57.976Z,30.73
2022-08-17T03:27:24.772Z,26.15
2022-08-17T03:29:51.581Z,24.23
2022-08-17T03:32:20.595Z,23.10
2022-08-17T03:34:47.815Z,22.48
2022-08-17T03:37:14.849Z,19.73
2022-08-17T03:39:41.853Z,16.23
2022-08-17T03:42:32.028Z,20.90
2022-08-17T03:45:01.168Z,14.43
2022-08-17T03:47:46.845Z,12.25
2022-08-17T03:50:33.824Z,10.18
2022-08-17T03:53:22.264Z,13.60
2022-08-17T03:56:07.994Z,13.45
2022-08-17T03:58:37.459Z,14.65
2022-08-17T04:01:07.631Z,10.27
2022-08-17T04:03:34.609Z,11.10
2022-08-17T04:06:02.310Z,12.05
2022-08-17T04:08:30.603Z,8.55
2022-08-17T04:10:58.272Z,8.73
2022-08-17T04:13:25.723Z,11.85
2022-08-17T04:15:52.871Z,8.82
2022-08-17T04:18:19.996Z,8.98
2022-08-17T04:20:47.291Z,10.65
2022-08-17T04:23:19.192Z,6.63
2022-08-17T04:25:49.806Z,9.88
2022-08-17T04:28:18.722Z,7.75
2022-08-17T04:30:47.402Z,9.70
2022-08-17T04:33:20.856Z,7.05
2022-08-17T04:35:56.728Z,10.82
2022-08-17T04:38:26.545Z,7.32
2022-08-17T04:41:12.303Z,10.95
2022-08-17T04:43:40.966Z,6.05
2022-08-17T04:46:11.398Z,6.82
2022-08-17T04:48:42.682Z,8.55
2022-08-17T04:51:17.198Z,5.20
2022-08-17T04:53:46.295Z,9.52
2022-08-17T04:56:21.091Z,6.63
2022-08-17T04:58:51.910Z,7.85
2022-08-17T05:01:23.676Z,5.75
2022-08-17T05:03:53.676Z,6.03
2022-08-17T05:06:20.709Z,10.25
2022-08-17T05:08:47.792Z,6.53
2022-08-17T05:11:15.028Z,9.30
2022-08-17T05:13:42.217Z,9.25
2022-08-17T05:16:09.278Z,6.47
2022-08-17T05:18:38.806Z,6.95
2022-08-17T05:21:06.930Z,8.13
2022-08-17T05:23:41.633Z,8.35
2022-08-17T05:26:22.551Z,7.45
2022-08-17T05:28:54.667Z,9.70
2022-08-17T05:31:24.709Z,9.02
2022-08-17T05:33:51.593Z,10.98
2022-08-17T05:36:43.305Z,9.90
2022-08-17T05:39:05.444Z,7.70
2022-08-17T05:41:32.294Z,6.40
2022-08-17T05:43:59.324Z,7.38
2022-08-17T05:46:31.802Z,6.05
2022-08-17T05:49:03.635Z,8.82
2022-08-17T05:51:49.262Z,10.93
2022-08-17T05:54:47.334Z,7.47
2022-08-17T05:57:35.620Z,8.70
2022-08-17T06:02:58.228Z,7.53
2022-08-17T06:05:48.418Z,6.93
2022-08-17T06:11:01.623Z,9.45
2022-08-17T06:13:42.226Z,9.38
2022-08-17T06:16:33.291Z,12.77
2022-08-17T06:19:17.249Z,10.27
2022-08-17T06:21:48.475Z,8.18
2022-08-17T06:24:34.353Z,8.85
2022-08-17T06:27:23.556Z,10.75
2022-08-17T06:30:09.379Z,6.13
2022-08-17T06:32:38.719Z,9.50
2022-08-17T06:35:07.622Z,8.05
2022-08-17T06:37:53.074Z,10.40
2022-08-17T06:40:46.281Z,7.25
2022-08-17T06:43:34.333Z,8.45
2022-08-17T06:46:12.956Z,11.82
2022-08-17T06:49:16.980Z,6.10
2022-08-17T06:51:52.189Z,12.65
2022-08-17T06:54:32.000Z,10.15
2022-08-17T06:57:23.171Z,9.02
2022-08-17T06:59:56.723Z,7.95
2022-08-17T07:02:51.512Z,6.32
2022-08-17T07:05:24.337Z,7.05
2022-08-17T07:08:11.661Z,6.85
2022-08-17T07:10:44.566Z,9.15
2022-08-17T07:13:44.502Z,10.55
2022-08-17T07:16:30.904Z,6.90
2022-08-17T07:18:59.476Z,10.05
2022-08-17T07:21:40.865Z,12.50
2022-08-17T07:24:29.449Z,9.65
2022-08-17T07:27:16.546Z,7.63
2022-08-17T07:29:49.610Z,6.47
2022-08-17T07:32:20.234Z,8.57
2022-08-17T07:35:07.517Z,7.60
2022-08-17T07:37:44.610Z,7.50
2022-08-17T07:40:19.274Z,7.15
2022-08-17T07:43:08.497Z,12.38
2022-08-17T07:46:12.017Z,8.27
2022-08-17T07:48:41.488Z,8.60
2022-08-17T07:51:22.566Z,8.40
2022-08-17T07:53:49.517Z,12.33
2022-08-17T07:56:51.122Z,7.57
2022-08-17T07:59:33.197Z,8.15
2022-08-17T08:02:08.149Z,7.22
2022-08-17T08:07:31.924Z,7.97
2022-08-17T08:10:13.114Z,5.47
2022-08-17T08:12:43.658Z,7.88
2022-08-17T08:15:15.370Z,7.43
2022-08-17T08:17:50.296Z,7.85
2022-08-17T08:20:42.441Z,8.38
2022-08-17T08:23:19.133Z,6.55
2022-08-17T08:26:03.205Z,12.67
2022-08-17T08:28:36.608Z,7.78
2022-08-17T08:31:24.494Z,11.70
2022-08-17T08:34:01.141Z,9.85
2022-08-17T08:37:15.991Z,7.47
2022-08-17T08:39:54.031Z,7.80
2022-08-17T08:43:10.675Z,12.23
2022-08-17T08:46:07.040Z,7.13
2022-08-17T08:49:00.974Z,7.97
2022-08-17T08:51:53.337Z,12.98
2022-08-17T08:55:02.025Z,7.55
2022-08-17T08:57:36.643Z,5.72
2022-08-17T09:00:14.796Z,8.70
2022-08-17T09:02:59.903Z,8.13
2022-08-17T09:05:52.807Z,13.02
2022-08-17T09:08:29.932Z,6.53
2022-08-17T09:11:00.669Z,11.10
2022-08-17T09:14:02.879Z,8.00
2022-08-17T09:16:36.325Z,10.55
2022-08-17T09:19:15.964Z,8.25
2022-08-17T09:21:52.759Z,6.47
2022-08-17T09:24:32.017Z,10.07
2022-08-17T09:27:08.795Z,8.65
2022-08-17T09:29:42.821Z,11.68
2022-08-17T09:32:17.688Z,8.40
2022-08-17T09:34:52.661Z,7.65
2022-08-17T09:37:19.481Z,11.90
2022-08-17T09:40:15.570Z,6.60
2022-08-17T09:43:04.646Z,6.93
2022-08-17T09:45:35.409Z,10.93
2022-08-17T09:48:10.960Z,9.15
2022-08-17T09:51:07.766Z,5.47
2022-08-17T09:53:39.122Z,11.05
2022-08-17T09:56:20.910Z,8.32
2022-08-17T09:59:22.239Z,10.25
2022-08-17T10:02:13.705Z,8.95
2022-08-17T10:07:15.357Z,6.05
2022-08-17T10:09:57.157Z,8.32
2022-08-17T10:12:46.358Z,9.45
2022-08-17T10:15:43.301Z,7.70
2022-08-17T10:18:31.961Z,7.47
2022-08-17T10:21:26.424Z,8.07
2022-08-17T10:24:37.362Z,8.95
2022-08-17T10:27:11.120Z,7.28
2022-08-17T10:30:00.999Z,9.68
2022-08-17T10:32:31.412Z,9.77
2022-08-17T10:35:29.190Z,7.90
2022-08-17T10:38:12.673Z,6.95
2022-08-17T10:41:18.053Z,7.68
2022-08-17T10:44:39.319Z,7.97
2022-08-17T10:47:09.764Z,11.70
2022-08-17T10:49:39.533Z,7.15
2022-08-17T10:52:41.472Z,9.65
2022-08-17T10:55:17.913Z,10.48
2022-08-17T10:57:50.297Z,15.57
2022-08-17T11:00:28.447Z,8.82
2022-08-17T11:02:57.500Z,11.10
2022-08-17T11:06:12.782Z,10.23
2022-08-17T11:09:08.914Z,10.00
2022-08-17T11:11:58.876Z,10.45
2022-08-17T11:14:34.882Z,11.00
2022-08-17T11:17:09.174Z,15.57
2022-08-17T11:20:13.439Z,11.40
2022-08-17T11:23:25.509Z,6.68
2022-08-17T11:25:55.570Z,9.75
2022-08-17T11:28:25.474Z,10.80
2022-08-17T11:30:57.690Z,11.00
2022-08-17T11:33:36.644Z,9.20
2022-08-17T11:36:12.710Z,9.93
2022-08-17T11:39:04.869Z,11.55
2022-08-17T11:41:55.107Z,12.73
2022-08-17T11:44:40.545Z,9.55
2022-08-17T11:48:23.883Z,10.27
2022-08-17T11:51:19.380Z,9.70
2022-08-17T11:53:46.158Z,11.85
2022-08-17T11:56:38.416Z,13.15
2022-08-17T11:59:39.188Z,11.80
2022-08-17T12:02:34.975Z,12.43
2022-08-17T12:05:04.507Z,8.07
2022-08-17T12:07:43.717Z,11.48
2022-08-17T12:10:13.133Z,10.35
2022-08-17T12:12:44.203Z,14.20
2022-08-17T12:15:28.852Z,13.10
2022-08-17T12:17:57.376Z,10.68
2022-08-17T12:20:28.382Z,10.90
2022-08-17T12:23:09.937Z,9.65
2022-08-17T12:26:01.062Z,9.40
2022-08-17T12:28:31.758Z,10.52
2022-08-17T12:31:02.989Z,9.30
2022-08-17T12:33:30.527Z,10.02
2022-08-17T12:36:05.098Z,11.32
2022-08-17T12:38:36.122Z,9.40
2022-08-17T12:41:24.911Z,10.02
2022-08-17T12:44:12.336Z,14.05
2022-08-17T12:47:23.294Z,10.60
2022-08-17T12:49:55.252Z,18.38
2022-08-17T12:52:27.298Z,12.38
2022-08-17T12:55:07.132Z,11.25
2022-08-17T12:57:42.659Z,10.68
2022-08-17T13:00:21.522Z,12.30
2022-08-17T13:03:07.918Z,13.05
2022-08-17T13:05:39.818Z,11.52
2022-08-17T13:08:18.327Z,13.00
2022-08-17T13:10:55.670Z,13.70
2022-08-17T13:13:29.071Z,12.45
2022-08-17T13:15:59.636Z,13.07
2022-08-17T13:18:42.905Z,11.95
2022-08-17T13:21:19.008Z,12.48
2022-08-17T13:23:58.121Z,10.38
2022-08-17T13:26:50.013Z,8.52
2022-08-17T13:29:28.747Z,7.32
2022-08-17T13:32:16.027Z,8.00
2022-08-17T13:35:12.591Z,12.52
2022-08-17T13:37:36.993Z,12.48
2022-08-17T13:40:03.965Z,9.95
2022-08-17T13:42:53.353Z,11.85
2022-08-17T13:53:14.249Z,9.93
2022-08-17T13:56:37.759Z,10.55
2022-08-17T13:59:00.542Z,13.00
2022-08-17T14:01:44.263Z,14.45
2022-08-17T14:04:21.481Z,11.02
2022-08-17T14:07:22.509Z,13.15
2022-08-17T14:09:55.056Z,12.20
2022-08-17T14:12:27.636Z,9.80
2022-08-17T14:14:59.818Z,11.00
2022-08-17T14:17:36.364Z,14.40
2022-08-17T14:20:10.790Z,11.63
2022-08-17T14:22:41.059Z,7.85
2022-08-17T14:25:10.451Z,9.85
2022-08-17T14:27:53.268Z,13.02
2022-08-17T14:30:22.995Z,10.82
2022-08-17T14:32:52.132Z,8.68
2022-08-17T14:35:22.123Z,9.48
2022-08-17T14:37:49.672Z,10.65
2022-08-17T14:40:20.473Z,11.15
2022-08-17T14:42:48.137Z,10.10
2022-08-17T14:45:30.172Z,11.38
2022-08-17T14:48:08.613Z,12.15
2022-08-17T14:50:38.869Z,11.05
2022-08-17T14:53:08.272Z,10.45
2022-08-17T14:55:37.288Z,10.20
2022-08-17T14:58:04.363Z,7.88
2022-08-17T15:00:32.524Z,10.95
2022-08-17T15:03:01.259Z,13.02
2022-08-17T15:05:32.170Z,8.63
2022-08-17T15:08:01.231Z,9.38
2022-08-17T15:10:29.373Z,7.43
2022-08-17T15:12:58.447Z,9.07
2022-08-17T15:15:25.533Z,9.45
2022-08-17T15:17:52.427Z,10.40
2022-08-17T15:20:23.889Z,10.60
2022-08-17T15:22:55.435Z,9.60
2022-08-17T15:25:23.661Z,6.35
2022-08-17T15:27:50.936Z,9.48
2022-08-17T15:30:18.076Z,10.20
2022-08-17T15:32:50.653Z,9.68
2022-08-17T15:35:25.167Z,10.40
2022-08-17T15:38:11.817Z,11.48
2022-08-17T15:40:43.093Z,11.45
2022-08-17T15:43:13.885Z,11.48
2022-08-17T15:45:41.101Z,9.45
2022-08-17T15:48:08.991Z,12.30
2022-08-17T15:50:36.267Z,8.05
2022-08-17T15:53:04.970Z,8.25
2022-08-17T15:55:33.422Z,11.57
2022-08-17T15:58:01.857Z,8.40
2022-08-17T16:00:29.553Z,7.60
2022-08-17T16:03:14.491Z,10.10
2022-08-17T16:05:46.734Z,8.68
2022-08-17T16:08:20.048Z,9.38
2022-08-17T16:10:47.836Z,9.38
2022-08-17T16:13:17.442Z,17.58
2022-08-17T16:15:49.720Z,9.57
2022-08-17T16:18:20.625Z,9.40
2022-08-17T16:20:47.652Z,9.45
2022-08-17T16:23:19.920Z,9.73
2022-08-17T16:25:52.828Z,7.10
2022-08-17T16:28:22.638Z,8.95
2022-08-17T16:31:02.722Z,7.80
2022-08-17T16:33:30.923Z,9.77
2022-08-17T16:35:58.262Z,9.25
2022-08-17T16:38:25.143Z,13.30
2022-08-17T16:40:52.010Z,17.90
2022-08-17T16:43:19.371Z,9.73
2022-08-17T16:45:51.849Z,12.55
2022-08-17T16:48:19.796Z,13.85
2022-08-17T16:51:03.294Z,15.80
2022-08-17T16:53:31.445Z,15.68
2022-08-17T16:55:58.514Z,17.40
2022-08-17T16:58:25.430Z,19.52
2022-08-17T17:00:52.382Z,17.13
2022-08-17T17:03:23.529Z,11.23
2022-08-17T17:06:28.566Z,10.15
2022-08-17T17:21:15.275Z,9.75
2022-08-17T17:24:09.578Z,10.32
2022-08-17T17:26:53.968Z,10.85
2022-08-17T17:29:47.650Z,14.30
2022-08-17T17:32:31.039Z,13.57
2022-08-17T17:35:07.017Z,10.20
2022-08-17T17:37:35.771Z,10.88
2022-08-17T17:40:24.269Z,10.75
2022-08-17T17:43:14.377Z,11.75
2022-08-17T17:46:27.114Z,8.90
2022-08-17T17:48:57.518Z,10.90
2022-08-17T17:52:11.020Z,11.07
2022-08-17T17:54:55.806Z,12.40
2022-08-17T17:57:51.698Z,15.02
2022-08-17T18:00:29.638Z,20.83
2022-08-17T18:03:18.059Z,14.80
2022-08-17T18:05:50.606Z,14.60
2022-08-17T18:08:36.241Z,14.65
2022-08-17T18:11:24.623Z,15.35
2022-08-17T18:14:19.781Z,13.75
2022-08-17T18:16:48.164Z,19.27
2022-08-17T18:19:25.116Z,14.20
2022-08-17T18:22:04.283Z,15.80
2022-08-17T18:24:39.983Z,15.68
2022-08-17T18:27:34.667Z,18.83
2022-08-17T18:30:28.923Z,17.40
2022-08-17T18:33:23.833Z,13.73
2022-08-17T18:35:58.519Z,12.38
2022-08-17T18:38:35.338Z,10.68
2022-08-17T18:41:21.270Z,17.10
2022-08-17T18:44:31.493Z,11.80
2022-08-17T18:47:18.697Z,14.30
2022-08-17T18:49:56.418Z,12.50
2022-08-17T18:52:29.021Z,13.98
2022-08-17T18:57:34.691Z,10.43
2022-08-17T19:00:10.168Z,9.82
2022-08-17T19:03:00.682Z,10.20
2022-08-17T19:05:41.535Z,11.57
2022-08-17T19:08:31.839Z,12.20
2022-08-17T19:10:59.964Z,14.20
2022-08-17T19:13:37.495Z,11.20
2022-08-17T19:16:18.645Z,13.50
2022-08-17T19:18:48.814Z,11.85
2022-08-17T19:21:20.606Z,11.30
2022-08-17T19:24:06.661Z,14.05
2022-08-17T19:26:54.896Z,10.35
2022-08-17T19:30:05.532Z,17.10
2022-08-17T19:32:35.829Z,11.77
2022-08-17T19:35:04.893Z,12.75
2022-08-17T19:38:06.268Z,17.23
2022-08-17T19:41:07.511Z,12.40
2022-08-17T19:43:53.229Z,15.00
2022-08-17T19:46:48.544Z,15.40
2022-08-17T19:49:22.794Z,14.65
2022-08-17T19:52:11.259Z,13.57
2022-08-17T19:54:48.024Z,12.18
2022-08-17T19:57:23.995Z,14.65
2022-08-17T20:00:03.201Z,11.77
2022-08-17T20:02:34.033Z,10.38
2022-08-17T20:05:07.273Z,9.73
2022-08-17T20:07:59.129Z,12.63
2022-08-17T20:10:48.118Z,14.65
2022-08-17T20:13:35.313Z,11.90
2022-08-17T20:16:04.160Z,12.32
2022-08-17T20:18:55.400Z,13.20
2022-08-17T20:21:37.126Z,12.90
2022-08-17T20:24:20.591Z,14.93
2022-08-17T20:26:58.335Z,12.65
2022-08-17T20:29:37.716Z,12.27
2022-08-17T20:32:18.314Z,11.18
2022-08-17T20:34:47.668Z,14.85
2022-08-17T20:37:14.565Z,13.48
2022-08-17T20:39:45.639Z,13.57
2022-08-17T20:42:15.659Z,16.48
2022-08-17T20:44:43.489Z,14.82
2022-08-17T20:47:18.414Z,14.90
2022-08-17T20:49:45.314Z,17.48
2022-08-17T20:52:31.872Z,18.50
2022-08-17T20:54:58.917Z,13.00
2022-08-17T20:57:34.347Z,13.82
2022-08-17T21:00:17.934Z,13.18
2022-08-17T21:02:51.448Z,16.10
2022-08-17T21:05:48.945Z,18.73
2022-08-17T21:08:33.617Z,17.92
2022-08-17T21:11:21.648Z,17.95
2022-08-17T21:14:22.526Z,19.70
2022-08-17T21:17:02.458Z,21.13
2022-08-17T21:20:12.558Z,17.70
2022-08-17T21:25:24.602Z,18.27
2022-08-17T21:28:10.090Z,18.67
2022-08-17T21:30:39.456Z,19.42
2022-08-17T21:33:32.554Z,17.10
2022-08-17T21:35:59.316Z,18.13
2022-08-17T21:38:51.562Z,19.58
2022-08-17T21:41:27.297Z,15.93
2022-08-17T21:44:01.814Z,20.95
2022-08-17T21:46:39.322Z,18.23
2022-08-17T21:49:13.786Z,17.63
2022-08-17T21:51:53.844Z,19.40
2022-08-17T21:54:25.296Z,22.73
2022-08-17T21:56:53.125Z,19.70
2022-08-17T21:59:19.908Z,21.58
2022-08-17T22:02:08.698Z,18.92
2022-08-17T22:04:38.772Z,22.10
2022-08-17T22:07:10.196Z,20.25
2022-08-17T22:09:44.883Z,23.70
2022-08-17T22:12:22.818Z,23.00
2022-08-17T22:14:55.422Z,26.13
2022-08-17T22:20:00.501Z,23.83
2022-08-17T22:22:57.508Z,29.55
2022-08-17T22:25:26.387Z,23.25
2022-08-17T22:27:56.734Z,27.98
2022-08-17T22:30:35.364Z,25.05
2022-08-17T22:33:31.486Z,24.58
2022-08-17T22:36:30.275Z,23.92
2022-08-17T22:39:01.852Z,24.13
2022-08-17T22:41:51.434Z,22.48
2022-08-17T22:44:23.351Z,30.30
2022-08-17T22:46:53.189Z,31.70
2022-08-17T22:49:54.199Z,37.80
2022-08-17T22:52:32.291Z,34.10
2022-08-17T22:55:35.151Z,30.58
2022-08-17T22:58:28.385Z,28.00
2022-08-17T23:00:55.837Z,29.35
2022-08-17T23:03:28.098Z,35.47
2022-08-17T23:06:05.821Z,31.85
2022-08-17T23:08:35.689Z,33.75
2022-08-17T23:11:02.746Z,28.08
2022-08-17T23:13:33.496Z,33.25
2022-08-17T23:16:00.330Z,28.33
2022-08-17T23:18:27.431Z,27.90
2022-08-17T23:20:54.341Z,29.10
2022-08-17T23:23:23.723Z,24.27
2022-08-17T23:25:50.777Z,29.42
2022-08-17T23:28:17.647Z,27.95
2022-08-17T23:30:46.676Z,26.33
2022-08-17T23:33:26.551Z,24.45
2022-08-17T23:35:54.119Z,25.05
2022-08-17T23:38:21.914Z,30.05
2022-08-17T23:40:48.693Z,24.17
2022-08-17T23:43:24.338Z,26.65
2022-08-17T23:45:54.635Z,24.38
2022-08-17T23:48:35.096Z,21.20
2022-08-17T23:51:08.809Z,24.75
2022-08-17T23:53:37.215Z,21.83
2022-08-17T23:56:10.317Z,19.52
2022-08-17T23:58:39.262Z,25.17
